Pallaskenry, Ireland
Current Conditions -  °F | °C
As of 4:30 AM on Thursday 29 Jan 2015 (Local Time) from EINN Reporting Station
Rain Showers Rain Showers  
Wind Chill: 29°   Ceiling: Unl
Heat Index: 39°   Visibility: 6mi
Dew Point: 34°   Wind: 23mph
Humidity: 81%   Direction: 270°W
Pressure: 29.32"   Gusts: 39mph
Location:  52.65°N, 8.87°W
Report Text: EINN 290430Z 27020G34KT 9999 -SHRAGR SCT018CB SCT050 04/01 Q0993 NOSIG
Loading
Personal Weather Stations






























Interactive Weather Map New forecast layout! Learn more

10-Day Weather Forecast

Advertisements
Track Severe Weather on mobile